Hilger, Montana
Current Conditions -  °F | °C
As of 6:54 AM on Monday 22 Dec 2014 (Local Time) from KLWT Reporting Station
Overcast Overcast  
Wind Chill: 25°   Ceiling: 6000
Heat Index: 34°   Visibility: 10mi
Dew Point: 22°   Wind: 13mph
Humidity: 61%   Direction: 300°WNW
Pressure: 29.75"   Gusts: NA
Location:  47.25°N, 109.36°W
Report Text: KLWT 221354Z AUTO 30011KT 10SM BKN060 OVC085 01/M06 A2975 RMK AO2 SLP087 T00111056
Loading
Personal Weather Stations






























Interactive Weather Map New forecast layout! Learn more

10-Day Weather Forecast

Advertisements
Track Severe Weather on mobile